createdAt,value
2023-05-10T00:00:18.568Z,21.09
2023-05-10T00:03:07.051Z,21.10
2023-05-10T00:05:34.964Z,20.84
2023-05-10T00:08:04.346Z,20.94
2023-05-10T00:10:32.066Z,20.62
2023-05-10T00:13:00.212Z,20.72
2023-05-10T00:15:28.117Z,20.63
2023-05-10T00:17:56.270Z,20.87
2023-05-10T00:20:24.155Z,20.86
2023-05-10T00:22:52.418Z,20.60
2023-05-10T00:25:20.213Z,20.59
2023-05-10T00:27:49.736Z,20.61
2023-05-10T00:30:17.722Z,20.72
2023-05-10T00:32:46.026Z,20.40
2023-05-10T00:35:13.988Z,20.70
2023-05-10T00:37:42.119Z,20.69
2023-05-10T00:40:10.414Z,20.47
2023-05-10T00:42:39.646Z,20.51
2023-05-10T00:45:09.171Z,20.61
2023-05-10T00:47:39.005Z,20.74
2023-05-10T00:50:07.732Z,20.26
2023-05-10T00:52:35.998Z,20.25
2023-05-10T00:55:05.189Z,20.47
2023-05-10T00:57:33.829Z,20.31
2023-05-10T01:00:03.362Z,20.15
2023-05-10T01:02:31.577Z,20.08
2023-05-10T01:05:00.351Z,19.74
2023-05-10T01:07:29.271Z,19.71
2023-05-10T01:09:57.938Z,20.31
2023-05-10T01:12:27.464Z,20.19
2023-05-10T01:14:56.318Z,20.04
2023-05-10T01:17:26.636Z,20.13
2023-05-10T01:19:54.537Z,19.87
2023-05-10T01:22:48.811Z,19.99
2023-05-10T01:25:55.586Z,19.70
2023-05-10T01:28:49.186Z,19.90
2023-05-10T01:31:43.055Z,20.07
2023-05-10T01:34:16.716Z,19.76
2023-05-10T01:37:10.602Z,19.85
2023-05-10T01:40:02.282Z,19.90
2023-05-10T01:42:46.946Z,19.91
2023-05-10T01:45:26.868Z,19.83
2023-05-10T01:48:06.893Z,20.03
2023-05-10T01:50:37.949Z,19.64
2023-05-10T01:53:10.308Z,19.95
2023-05-10T01:55:50.516Z,19.79
2023-05-10T01:58:29.676Z,19.67
2023-05-10T02:01:01.940Z,19.78
2023-05-10T02:03:32.316Z,19.78
2023-05-10T02:06:01.002Z,19.51
2023-05-10T02:08:30.224Z,19.60
2023-05-10T02:11:00.808Z,19.53
2023-05-10T02:13:33.078Z,19.21
2023-05-10T02:16:03.125Z,19.08
2023-05-10T02:18:32.848Z,19.12
2023-05-10T02:21:03.955Z,19.13
2023-05-10T02:23:32.570Z,18.87
2023-05-10T02:26:03.051Z,19.25
2023-05-10T02:28:32.492Z,18.90
2023-05-10T02:31:01.359Z,18.84
2023-05-10T02:33:30.790Z,18.78
2023-05-10T02:36:00.260Z,18.87
2023-05-10T02:38:28.451Z,18.71
2023-05-10T02:41:00.809Z,18.69
2023-05-10T02:43:31.514Z,18.70
2023-05-10T02:45:59.683Z,18.46
2023-05-10T02:48:27.530Z,18.51
2023-05-10T02:51:01.673Z,18.29
2023-05-10T02:53:34.635Z,18.25
2023-05-10T02:56:09.802Z,18.22
2023-05-10T02:58:37.603Z,18.19
2023-05-10T03:01:08.710Z,18.08
2023-05-10T03:03:36.481Z,18.12
2023-05-10T03:06:06.151Z,17.94
2023-05-10T03:08:34.142Z,17.92
2023-05-10T03:11:41.345Z,17.94
2023-05-10T03:14:32.898Z,17.72
2023-05-10T03:17:04.667Z,17.75
2023-05-10T03:19:53.174Z,17.79
2023-05-10T03:22:42.153Z,17.61
2023-05-10T03:25:13.362Z,17.71
2023-05-10T03:27:44.869Z,17.61
2023-05-10T03:30:14.207Z,17.77
2023-05-10T03:32:44.394Z,17.83
2023-05-10T03:35:15.368Z,17.85
2023-05-10T03:37:44.048Z,17.76
2023-05-10T03:40:12.064Z,17.61
2023-05-10T03:42:43.432Z,17.44
2023-05-10T03:45:11.446Z,17.46
2023-05-10T03:47:40.083Z,17.45
2023-05-10T03:50:08.549Z,17.50
2023-05-10T03:52:40.442Z,17.41
2023-05-10T03:55:08.773Z,17.46
2023-05-10T03:57:38.195Z,17.38
2023-05-10T04:00:07.952Z,17.40
2023-05-10T04:02:43.181Z,17.43
2023-05-10T04:05:17.504Z,17.45
2023-05-10T04:07:48.232Z,17.41
2023-05-10T04:10:17.782Z,17.31
2023-05-10T04:12:47.162Z,17.02
2023-05-10T04:15:15.081Z,17.42
2023-05-10T04:17:44.015Z,17.48
2023-05-10T04:20:12.442Z,17.38
2023-05-10T04:22:40.556Z,17.31
2023-05-10T04:25:08.883Z,17.33
2023-05-10T04:27:37.001Z,17.35
2023-05-10T04:30:05.557Z,17.20
2023-05-10T04:32:33.749Z,17.24
2023-05-10T04:35:04.210Z,17.24
2023-05-10T04:37:33.387Z,17.27
2023-05-10T04:40:01.303Z,17.44
2023-05-10T04:42:29.341Z,17.35
2023-05-10T04:44:57.101Z,17.35
2023-05-10T04:47:25.276Z,17.53
2023-05-10T04:49:53.568Z,17.39
2023-05-10T04:52:21.863Z,17.40
2023-05-10T04:54:49.672Z,17.16
2023-05-10T04:57:19.045Z,17.25
2023-05-10T04:59:48.952Z,17.37
2023-05-10T05:02:18.620Z,17.25
2023-05-10T05:04:46.380Z,17.28
2023-05-10T05:07:15.930Z,17.24
2023-05-10T05:09:43.804Z,17.18
2023-05-10T05:12:15.308Z,17.24
2023-05-10T05:14:43.300Z,17.26
2023-05-10T05:17:11.454Z,17.01
2023-05-10T05:19:39.343Z,17.02
2023-05-10T05:22:09.292Z,17.14
2023-05-10T05:24:40.551Z,17.27
2023-05-10T05:27:08.852Z,17.02
2023-05-10T05:29:36.670Z,16.99
2023-05-10T05:32:05.079Z,17.13
2023-05-10T05:34:32.903Z,17.24
2023-05-10T05:37:01.473Z,17.31
2023-05-10T05:39:29.280Z,17.44
2023-05-10T05:41:59.750Z,17.44
2023-05-10T05:44:29.993Z,17.11
2023-05-10T05:46:58.120Z,17.31
2023-05-10T05:49:26.642Z,17.18
2023-05-10T05:51:54.844Z,17.11
2023-05-10T05:54:22.686Z,17.11
2023-05-10T05:56:50.792Z,17.09
2023-05-10T05:59:18.602Z,17.18
2023-05-10T06:01:46.739Z,17.21
2023-05-10T06:04:14.654Z,16.91
2023-05-10T06:06:44.381Z,17.12
2023-05-10T06:09:12.641Z,17.28
2023-05-10T06:11:40.749Z,17.18
2023-05-10T06:14:09.038Z,17.24
2023-05-10T06:16:37.249Z,17.28
2023-05-10T06:19:05.059Z,17.43
2023-05-10T06:21:33.151Z,17.45
2023-05-10T06:24:01.519Z,17.39
2023-05-10T06:26:29.853Z,17.45
2023-05-10T06:28:57.636Z,17.35
2023-05-10T06:31:25.816Z,17.27
2023-05-10T06:33:56.568Z,17.64
2023-05-10T06:36:27.595Z,17.40
2023-05-10T06:38:56.088Z,17.23
2023-05-10T06:41:25.047Z,17.26
2023-05-10T06:43:52.981Z,17.34
2023-05-10T06:46:21.301Z,17.33
2023-05-10T06:48:49.869Z,17.30
2023-05-10T06:51:19.201Z,17.23
2023-05-10T06:53:46.922Z,17.22
2023-05-10T06:56:16.108Z,17.27
2023-05-10T06:58:43.919Z,17.27
2023-05-10T07:01:12.141Z,17.08
2023-05-10T07:03:40.214Z,17.03
2023-05-10T07:06:15.616Z,17.06
2023-05-10T07:08:49.814Z,17.14
2023-05-10T07:11:17.964Z,17.11
2023-05-10T07:13:47.619Z,17.04
2023-05-10T07:16:15.948Z,16.83
2023-05-10T07:18:43.903Z,16.88
2023-05-10T07:21:12.108Z,16.68
2023-05-10T07:23:39.976Z,16.62
2023-05-10T07:26:10.662Z,16.79
2023-05-10T07:28:39.321Z,16.73
2023-05-10T07:31:08.867Z,17.03
2023-05-10T07:33:36.942Z,16.93
2023-05-10T07:36:05.233Z,16.86
2023-05-10T07:38:32.979Z,16.87
2023-05-10T07:41:01.069Z,16.68
2023-05-10T07:43:29.128Z,16.69
2023-05-10T07:45:58.928Z,17.09
2023-05-10T07:48:27.460Z,16.93
2023-05-10T07:50:55.598Z,17.06
2023-05-10T07:53:23.766Z,17.01
2023-05-10T07:55:59.377Z,17.05
2023-05-10T07:58:27.426Z,16.62
2023-05-10T08:00:57.676Z,16.91
2023-05-10T08:03:25.547Z,16.83
2023-05-10T08:05:53.809Z,16.80
2023-05-10T08:08:23.924Z,16.79
2023-05-10T08:10:52.232Z,16.85
2023-05-10T08:13:20.100Z,16.79
2023-05-10T08:15:48.526Z,16.82
2023-05-10T08:18:16.296Z,16.82
2023-05-10T08:20:44.404Z,16.91
2023-05-10T08:23:14.545Z,17.07
2023-05-10T08:25:42.649Z,17.12
2023-05-10T08:28:12.044Z,17.06
2023-05-10T08:30:40.276Z,16.95
2023-05-10T08:33:08.038Z,16.95
2023-05-10T08:35:36.094Z,16.93
2023-05-10T08:38:03.891Z,16.99
2023-05-10T08:40:32.134Z,16.72
2023-05-10T08:43:09.925Z,16.82
2023-05-10T08:45:43.257Z,16.84
2023-05-10T08:48:12.420Z,16.65
2023-05-10T08:50:42.051Z,16.90
2023-05-10T08:53:16.421Z,16.55
2023-05-10T08:55:44.659Z,16.80
2023-05-10T08:58:13.342Z,16.94
2023-05-10T09:00:41.546Z,16.92
2023-05-10T09:03:10.410Z,16.88
2023-05-10T09:05:38.801Z,17.03
2023-05-10T09:08:09.278Z,17.12
2023-05-10T09:10:41.166Z,17.15
2023-05-10T09:13:11.183Z,17.22
2023-05-10T09:15:39.884Z,17.21
2023-05-10T09:18:07.762Z,17.21
2023-05-10T09:20:35.991Z,17.28
2023-05-10T09:23:03.868Z,17.54
2023-05-10T09:25:34.542Z,17.48
2023-05-10T09:28:02.370Z,17.24
2023-05-10T09:30:32.293Z,17.37
2023-05-10T09:33:01.290Z,17.36
2023-05-10T09:35:31.408Z,17.57
2023-05-10T09:38:05.451Z,17.85
2023-05-10T09:40:33.157Z,17.63
2023-05-10T09:43:03.544Z,17.58
2023-05-10T09:45:32.963Z,17.51
2023-05-10T09:48:03.684Z,17.57
2023-05-10T09:50:31.928Z,17.86
2023-05-10T09:53:02.002Z,17.65
2023-05-10T09:55:41.830Z,17.88
2023-05-10T09:58:11.779Z,17.86
2023-05-10T10:00:42.118Z,17.97
2023-05-10T10:03:22.433Z,18.07
2023-05-10T10:05:50.351Z,18.22
2023-05-10T10:08:19.452Z,18.21
2023-05-10T10:10:48.156Z,18.16
2023-05-10T10:13:18.415Z,18.17
2023-05-10T10:15:47.285Z,18.16
2023-05-10T10:18:18.320Z,18.12
2023-05-10T10:20:47.066Z,18.27
2023-05-10T10:23:17.359Z,18.36
2023-05-10T10:25:49.126Z,18.37
2023-05-10T10:28:36.786Z,18.48
2023-05-10T10:31:20.698Z,18.45
2023-05-10T10:34:29.982Z,18.37
2023-05-10T10:36:59.142Z,18.54
2023-05-10T10:39:28.031Z,18.62
2023-05-10T10:41:58.027Z,18.17
2023-05-10T10:44:34.503Z,18.13
2023-05-10T10:47:19.730Z,18.16
2023-05-10T10:49:53.641Z,18.37
2023-05-10T10:52:32.331Z,18.24
2023-05-10T10:55:10.329Z,18.34
2023-05-10T10:57:48.199Z,18.30
2023-05-10T11:00:42.023Z,18.41
2023-05-10T11:03:16.686Z,18.34
2023-05-10T11:05:50.238Z,18.43
2023-05-10T11:08:28.402Z,18.49
2023-05-10T11:11:08.009Z,18.57
2023-05-10T11:13:49.965Z,18.56
2023-05-10T11:16:25.304Z,18.59
2023-05-10T11:19:04.897Z,18.61
2023-05-10T11:21:36.032Z,18.74
2023-05-10T11:24:13.786Z,18.98
2023-05-10T11:26:42.041Z,18.72
2023-05-10T11:29:10.027Z,18.80
2023-05-10T11:31:47.809Z,18.86
2023-05-10T11:34:31.410Z,18.90
2023-05-10T11:36:59.558Z,18.81
2023-05-10T11:39:29.202Z,18.75
2023-05-10T11:42:00.747Z,18.95
2023-05-10T11:44:32.763Z,18.92
2023-05-10T11:47:02.715Z,18.92
2023-05-10T11:49:31.517Z,18.95
2023-05-10T11:52:08.586Z,18.93
2023-05-10T11:54:36.570Z,18.65
2023-05-10T11:57:05.324Z,18.52
2023-05-10T11:59:33.101Z,18.48
2023-05-10T12:02:02.231Z,18.77
2023-05-10T12:04:30.795Z,18.55
2023-05-10T12:06:59.164Z,18.77
2023-05-10T12:09:42.600Z,18.44
2023-05-10T12:12:17.556Z,18.55
2023-05-10T12:14:45.362Z,18.44
2023-05-10T12:17:14.445Z,18.67
2023-05-10T12:19:42.617Z,18.70
2023-05-10T12:22:11.671Z,18.61
2023-05-10T12:24:39.974Z,18.62
2023-05-10T12:29:56.866Z,18.32
2023-05-10T12:32:39.446Z,18.49
2023-05-10T12:35:07.851Z,18.55
2023-05-10T12:37:40.110Z,18.40
2023-05-10T12:40:10.672Z,18.64
2023-05-10T12:42:40.965Z,18.43
2023-05-10T12:45:10.093Z,18.36
2023-05-10T12:47:39.495Z,18.36
2023-05-10T12:50:09.544Z,18.40
2023-05-10T12:52:38.249Z,18.21
2023-05-10T12:55:06.250Z,18.61
2023-05-10T12:57:34.678Z,18.44
2023-05-10T13:00:02.600Z,18.40
2023-05-10T13:02:31.120Z,18.55
2023-05-10T13:04:59.147Z,18.65
2023-05-10T13:07:27.909Z,18.67
2023-05-10T13:09:55.967Z,18.86
2023-05-10T13:12:24.328Z,18.87
2023-05-10T13:14:52.187Z,18.97
2023-05-10T13:17:20.499Z,18.86
2023-05-10T13:19:48.616Z,18.79
2023-05-10T13:22:22.883Z,18.80
2023-05-10T13:24:56.928Z,18.93
2023-05-10T13:27:25.168Z,18.77
2023-05-10T13:29:53.118Z,18.64
2023-05-10T13:32:21.437Z,18.92
2023-05-10T13:34:49.285Z,18.97
2023-05-10T13:37:17.501Z,18.91
2023-05-10T13:39:45.489Z,19.19
2023-05-10T13:42:13.811Z,19.29
2023-05-10T13:44:41.811Z,19.08
2023-05-10T13:47:10.085Z,19.08
2023-05-10T13:49:37.975Z,18.81
2023-05-10T13:52:08.023Z,18.92
2023-05-10T13:54:36.849Z,18.87
2023-05-10T13:57:05.796Z,19.24
2023-05-10T13:59:34.030Z,19.09
2023-05-10T14:02:05.280Z,18.92
2023-05-10T14:04:33.227Z,19.14
2023-05-10T14:07:01.533Z,19.14
2023-05-10T14:09:29.432Z,19.05
2023-05-10T14:11:57.713Z,18.89
2023-05-10T14:14:26.084Z,18.98
2023-05-10T14:16:54.792Z,19.14
2023-05-10T14:19:22.631Z,19.03
2023-05-10T14:21:53.169Z,18.95
2023-05-10T14:24:21.076Z,18.93
2023-05-10T14:26:49.288Z,18.74
2023-05-10T14:29:17.300Z,18.72
2023-05-10T14:31:45.620Z,18.82
2023-05-10T14:34:13.540Z,18.88
2023-05-10T14:36:41.771Z,19.07
2023-05-10T14:39:11.272Z,19.07
2023-05-10T14:41:42.348Z,18.78
2023-05-10T14:44:11.193Z,18.76
2023-05-10T14:46:40.604Z,19.12
2023-05-10T14:49:08.861Z,19.15
2023-05-10T14:51:37.985Z,19.06
2023-05-10T14:54:06.057Z,18.86
2023-05-10T14:56:34.402Z,19.12
2023-05-10T14:59:02.254Z,18.83
2023-05-10T15:01:32.817Z,18.73
2023-05-10T15:04:01.237Z,18.92
2023-05-10T15:06:34.956Z,19.00
2023-05-10T15:09:04.617Z,18.98
2023-05-10T15:11:33.326Z,18.92
2023-05-10T15:14:01.320Z,18.54
2023-05-10T15:16:29.782Z,18.54
2023-05-10T15:18:57.845Z,18.23
2023-05-10T15:21:26.136Z,18.20
2023-05-10T15:23:54.144Z,18.34
2023-05-10T15:26:23.275Z,18.27
2023-05-10T15:28:51.589Z,18.41
2023-05-10T15:31:19.929Z,18.39
2023-05-10T15:33:47.896Z,18.50
2023-05-10T15:36:18.145Z,18.69
2023-05-10T15:38:46.035Z,18.69
2023-05-10T15:41:14.502Z,18.71
2023-05-10T15:43:42.778Z,18.55
2023-05-10T15:46:11.316Z,18.37
2023-05-10T15:48:40.563Z,18.42
2023-05-10T15:51:09.235Z,18.63
2023-05-10T15:53:37.252Z,18.64
2023-05-10T15:56:06.154Z,18.67
2023-05-10T15:58:34.144Z,18.28
2023-05-10T16:01:02.562Z,18.57
2023-05-10T16:03:31.600Z,18.21
2023-05-10T16:06:00.234Z,18.46
2023-05-10T16:08:31.044Z,18.80
2023-05-10T16:10:59.255Z,18.89
2023-05-10T16:13:27.312Z,18.86
2023-05-10T16:15:55.803Z,18.93
2023-05-10T16:18:23.742Z,18.82
2023-05-10T16:20:53.542Z,18.63
2023-05-10T16:23:21.424Z,18.36
2023-05-10T16:25:49.542Z,18.45
2023-05-10T16:28:17.363Z,18.48
2023-05-10T16:30:47.745Z,18.04
2023-05-10T16:33:17.160Z,17.94
2023-05-10T16:35:45.268Z,17.64
2023-05-10T16:38:13.210Z,17.69
2023-05-10T16:40:41.363Z,17.63
2023-05-10T16:43:09.295Z,17.49
2023-05-10T16:45:37.524Z,17.58
2023-05-10T16:48:06.149Z,17.79
2023-05-10T16:50:34.579Z,17.86
2023-05-10T16:53:02.421Z,17.70
2023-05-10T16:55:30.928Z,17.93
2023-05-10T16:58:01.055Z,17.71
2023-05-10T17:00:29.336Z,17.68
2023-05-10T17:02:57.350Z,17.64
2023-05-10T17:05:26.610Z,17.67
2023-05-10T17:07:54.821Z,17.80
2023-05-10T17:10:23.227Z,17.49
2023-05-10T17:12:51.633Z,17.43
2023-05-10T17:15:21.108Z,17.67
2023-05-10T17:17:49.185Z,17.94
2023-05-10T17:20:17.675Z,17.84
2023-05-10T17:22:45.478Z,17.73
2023-05-10T17:25:13.713Z,17.29
2023-05-10T17:27:41.625Z,17.22
2023-05-10T17:30:10.265Z,17.32
2023-05-10T17:32:39.760Z,17.34
2023-05-10T17:35:08.572Z,17.62
2023-05-10T17:37:36.494Z,17.59
2023-05-10T17:40:07.613Z,17.56
2023-05-10T17:42:35.674Z,17.35
2023-05-10T17:45:04.423Z,17.17
2023-05-10T17:47:32.369Z,17.53
2023-05-10T17:50:00.610Z,17.53
2023-05-10T17:52:31.384Z,17.64
2023-05-10T17:55:01.146Z,17.74
2023-05-10T17:57:29.010Z,17.30
2023-05-10T17:59:57.289Z,17.08
2023-05-10T18:02:25.185Z,17.47
2023-05-10T18:04:53.511Z,17.37
2023-05-10T18:07:24.059Z,17.27
2023-05-10T18:09:52.271Z,17.04
2023-05-10T18:12:20.073Z,17.46
2023-05-10T18:14:48.250Z,17.42
2023-05-10T18:17:16.185Z,17.62
2023-05-10T18:19:44.288Z,17.42
2023-05-10T18:22:12.086Z,17.40
2023-05-10T18:24:41.192Z,17.15
2023-05-10T18:27:09.743Z,17.26
2023-05-10T18:29:38.385Z,16.84
2023-05-10T18:32:07.029Z,16.79
2023-05-10T18:34:35.458Z,17.10
2023-05-10T18:37:07.803Z,17.00
2023-05-10T18:39:39.382Z,16.44
2023-05-10T18:42:07.911Z,16.71
2023-05-10T18:44:36.140Z,17.13
2023-05-10T18:47:04.091Z,17.09
2023-05-10T18:49:32.448Z,17.20
2023-05-10T18:52:00.246Z,16.90
2023-05-10T18:54:28.539Z,17.14
2023-05-10T18:56:57.541Z,16.96
2023-05-10T18:59:28.289Z,17.05
2023-05-10T19:01:57.473Z,16.62
2023-05-10T19:04:26.510Z,16.59
2023-05-10T19:06:56.105Z,16.69
2023-05-10T19:09:27.154Z,16.62
2023-05-10T19:11:55.421Z,16.54
2023-05-10T19:14:25.636Z,16.85
2023-05-10T19:16:56.183Z,16.84
2023-05-10T19:19:25.902Z,16.59
2023-05-10T19:21:55.656Z,16.93
2023-05-10T19:24:25.958Z,16.55
2023-05-10T19:26:56.689Z,16.53
2023-05-10T19:29:26.210Z,16.35
2023-05-10T19:31:55.236Z,16.47
2023-05-10T19:34:23.844Z,16.72
2023-05-10T19:36:52.842Z,16.56
2023-05-10T19:39:22.451Z,16.64
2023-05-10T19:41:51.809Z,16.86
2023-05-10T19:44:21.210Z,16.78
2023-05-10T19:46:50.239Z,16.74
2023-05-10T19:49:20.051Z,16.62
2023-05-10T19:51:50.089Z,16.73
2023-05-10T19:54:18.956Z,16.66
2023-05-10T19:56:46.872Z,16.81
2023-05-10T19:59:15.790Z,17.03
2023-05-10T20:01:43.810Z,16.90
2023-05-10T20:04:12.771Z,16.95
2023-05-10T20:06:40.857Z,17.17
2023-05-10T20:09:09.844Z,17.36
2023-05-10T20:11:38.847Z,16.88
2023-05-10T20:14:07.339Z,16.63
2023-05-10T20:16:36.369Z,16.66
2023-05-10T20:19:05.351Z,16.38
2023-05-10T20:21:34.752Z,16.26
2023-05-10T20:24:03.580Z,16.18
2023-05-10T20:26:31.521Z,16.30
2023-05-10T20:29:00.690Z,16.31
2023-05-10T20:31:29.376Z,16.46
2023-05-10T20:33:57.740Z,16.55
2023-05-10T20:36:27.690Z,16.48
2023-05-10T20:38:57.076Z,16.61
2023-05-10T20:41:25.986Z,16.31
2023-05-10T20:43:54.765Z,16.40
2023-05-10T20:46:23.569Z,16.34
2023-05-10T20:48:52.563Z,16.28
2023-05-10T20:51:21.416Z,16.41
2023-05-10T20:53:49.821Z,16.62
2023-05-10T20:56:20.920Z,16.79
2023-05-10T20:58:49.235Z,16.38
2023-05-10T21:01:19.306Z,16.48
2023-05-10T21:03:48.207Z,16.70
2023-05-10T21:06:16.323Z,16.80
2023-05-10T21:08:45.760Z,16.37
2023-05-10T21:11:14.016Z,16.56
2023-05-10T21:13:44.287Z,16.42
2023-05-10T21:16:12.222Z,16.23
2023-05-10T21:18:41.606Z,16.46
2023-05-10T21:21:09.914Z,16.37
2023-05-10T21:23:38.216Z,16.20
2023-05-10T21:26:06.573Z,16.43
2023-05-10T21:28:35.002Z,16.41
2023-05-10T21:31:03.023Z,16.64
2023-05-10T21:33:31.473Z,16.48
2023-05-10T21:35:59.546Z,16.73
2023-05-10T21:38:29.049Z,16.85
2023-05-10T21:40:57.199Z,16.83
2023-05-10T21:43:25.475Z,16.83
2023-05-10T21:45:53.389Z,16.96
2023-05-10T21:48:21.585Z,16.93
2023-05-10T21:50:49.571Z,17.08
2023-05-10T21:53:18.252Z,17.32
2023-05-10T21:55:46.262Z,17.43
2023-05-10T21:58:14.631Z,17.59
2023-05-10T22:00:42.640Z,17.47
2023-05-10T22:03:11.258Z,17.48
2023-05-10T22:05:39.546Z,17.48
2023-05-10T22:08:08.110Z,17.88
2023-05-10T22:10:36.108Z,17.67
2023-05-10T22:13:04.574Z,17.43
2023-05-10T22:15:34.155Z,17.36
2023-05-10T22:18:04.380Z,17.33
2023-05-10T22:20:33.286Z,17.64
2023-05-10T22:23:01.608Z,17.42
2023-05-10T22:25:29.441Z,17.29
2023-05-10T22:27:57.801Z,17.03
2023-05-10T22:30:26.006Z,17.08
2023-05-10T22:32:54.475Z,17.28
2023-05-10T22:35:22.493Z,17.48
2023-05-10T22:37:50.932Z,17.45
2023-05-10T22:40:19.206Z,17.48
2023-05-10T22:42:47.503Z,17.61
2023-05-10T22:45:15.495Z,17.58
2023-05-10T22:47:43.750Z,17.44
2023-05-10T22:50:12.606Z,17.67
2023-05-10T22:52:40.816Z,17.40
2023-05-10T22:55:09.443Z,17.71
2023-05-10T22:57:37.760Z,17.33
2023-05-10T23:00:06.769Z,17.33
2023-05-10T23:02:35.296Z,17.20
2023-05-10T23:05:05.496Z,17.19
2023-05-10T23:07:33.916Z,17.12
2023-05-10T23:10:02.302Z,17.16
2023-05-10T23:12:31.592Z,17.16
2023-05-10T23:14:59.793Z,17.37
2023-05-10T23:17:27.930Z,17.36
2023-05-10T23:19:55.945Z,17.28
2023-05-10T23:22:24.185Z,17.45
2023-05-10T23:24:52.035Z,17.27
2023-05-10T23:27:20.249Z,17.14
2023-05-10T23:29:52.434Z,17.09
2023-05-10T23:32:20.739Z,17.11
2023-05-10T23:34:48.630Z,17.23
2023-05-10T23:37:17.200Z,17.23
2023-05-10T23:39:45.282Z,17.06
2023-05-10T23:42:13.593Z,16.88
2023-05-10T23:44:41.641Z,16.89
2023-05-10T23:47:09.984Z,17.00
2023-05-10T23:49:38.239Z,17.02
2023-05-10T23:52:06.326Z,17.21
2023-05-10T23:54:34.372Z,17.17
2023-05-10T23:57:03.506Z,17.06
2023-05-10T23:59:31.352Z,17.22
